sensor_id;sensor_type;location;lat;lon;timestamp;pressure;altitude;pressure_sealevel;temperature;humidity
16793;BME280;8513;42.662;23.350;2024-01-07T00:00:41;93424.28;;;9.08;66.11
16793;BME280;8513;42.662;23.350;2024-01-07T00:03:06;93419.56;;;9.03;66.37
16793;BME280;8513;42.662;23.350;2024-01-07T00:05:32;93423.19;;;9.02;66.33
16793;BME280;8513;42.662;23.350;2024-01-07T00:07:57;93413.94;;;9.06;66.32
16793;BME280;8513;42.662;23.350;2024-01-07T00:10:23;93405.84;;;9.01;66.53
16793;BME280;8513;42.662;23.350;2024-01-07T00:12:48;93406.53;;;8.95;66.94
16793;BME280;8513;42.662;23.350;2024-01-07T00:15:15;93404.31;;;9.07;66.28
16793;BME280;8513;42.662;23.350;2024-01-07T00:17:41;93403.50;;;8.91;65.27
16793;BME280;8513;42.662;23.350;2024-01-07T00:20:06;93393.63;;;8.64;64.56
16793;BME280;8513;42.662;23.350;2024-01-07T00:22:32;93396.44;;;8.62;63.56
16793;BME280;8513;42.662;23.350;2024-01-07T00:24:57;93386.31;;;8.36;64.01
16793;BME280;8513;42.662;23.350;2024-01-07T00:27:23;93380.28;;;8.35;64.04
16793;BME280;8513;42.662;23.350;2024-01-07T00:29:48;93382.72;;;8.37;63.95
16793;BME280;8513;42.662;23.350;2024-01-07T00:32:14;93366.19;;;8.36;64.02
16793;BME280;8513;42.662;23.350;2024-01-07T00:34:39;93355.97;;;8.27;63.86
16793;BME280;8513;42.662;23.350;2024-01-07T00:37:05;93368.34;;;8.18;64.37
16793;BME280;8513;42.662;23.350;2024-01-07T00:39:30;93359.94;;;8.23;64.05
16793;BME280;8513;42.662;23.350;2024-01-07T00:41:55;93354.19;;;7.89;65.06
16793;BME280;8513;42.662;23.350;2024-01-07T00:44:21;93355.78;;;7.90;64.67
16793;BME280;8513;42.662;23.350;2024-01-07T00:46:47;93354.69;;;7.85;64.66
16793;BME280;8513;42.662;23.350;2024-01-07T00:49:12;93342.47;;;8.00;65.00
16793;BME280;8513;42.662;23.350;2024-01-07T00:51:37;93341.75;;;7.91;64.89
16793;BME280;8513;42.662;23.350;2024-01-07T00:54:03;93329.56;;;7.99;64.67
16793;BME280;8513;42.662;23.350;2024-01-07T00:56:29;93319.06;;;7.84;65.16
16793;BME280;8513;42.662;23.350;2024-01-07T00:58:55;93320.00;;;7.68;65.23
16793;BME280;8513;42.662;23.350;2024-01-07T01:01:21;93330.69;;;7.81;65.17
16793;BME280;8513;42.662;23.350;2024-01-07T01:03:47;93337.09;;;7.56;66.01
16793;BME280;8513;42.662;23.350;2024-01-07T01:06:12;93331.66;;;7.80;65.14
16793;BME280;8513;42.662;23.350;2024-01-07T01:08:38;93330.91;;;7.94;64.70
16793;BME280;8513;42.662;23.350;2024-01-07T01:11:03;93314.72;;;7.76;65.14
16793;BME280;8513;42.662;23.350;2024-01-07T01:13:28;93307.38;;;7.94;64.74
16793;BME280;8513;42.662;23.350;2024-01-07T01:15:54;93302.19;;;7.86;65.17
16793;BME280;8513;42.662;23.350;2024-01-07T01:18:20;93289.41;;;7.91;64.94
16793;BME280;8513;42.662;23.350;2024-01-07T01:20:46;93289.41;;;7.91;64.68
16793;BME280;8513;42.662;23.350;2024-01-07T01:23:11;93278.84;;;8.00;64.66
16793;BME280;8513;42.662;23.350;2024-01-07T01:25:37;93276.69;;;8.03;64.75
16793;BME280;8513;42.662;23.350;2024-01-07T01:28:04;93274.22;;;8.02;64.64
16793;BME280;8513;42.662;23.350;2024-01-07T01:30:29;93259.25;;;7.95;65.06
16793;BME280;8513;42.662;23.350;2024-01-07T01:32:57;93254.00;;;7.95;65.22
16793;BME280;8513;42.662;23.350;2024-01-07T01:35:22;93248.69;;;8.04;65.24
16793;BME280;8513;42.662;23.350;2024-01-07T01:37:48;93247.97;;;8.10;65.13
16793;BME280;8513;42.662;23.350;2024-01-07T01:40:13;93240.88;;;8.18;64.82
16793;BME280;8513;42.662;23.350;2024-01-07T01:42:43;93233.81;;;8.19;64.54
16793;BME280;8513;42.662;23.350;2024-01-07T01:45:09;93223.34;;;8.19;64.69
16793;BME280;8513;42.662;23.350;2024-01-07T01:47:34;93208.38;;;8.13;64.88
16793;BME280;8513;42.662;23.350;2024-01-07T01:50:00;93212.88;;;8.19;65.21
16793;BME280;8513;42.662;23.350;2024-01-07T01:52:26;93195.19;;;8.21;66.58
16793;BME280;8513;42.662;23.350;2024-01-07T01:54:52;93178.56;;;8.44;67.21
16793;BME280;8513;42.662;23.350;2024-01-07T01:57:20;93175.75;;;8.45;67.27
16793;BME280;8513;42.662;23.350;2024-01-07T01:59:48;93180.31;;;8.58;67.94
16793;BME280;8513;42.662;23.350;2024-01-07T02:02:13;93187.00;;;8.60;68.42
16793;BME280;8513;42.662;23.350;2024-01-07T02:04:39;93184.53;;;8.74;68.30
16793;BME280;8513;42.662;23.350;2024-01-07T02:07:05;93192.47;;;8.80;68.16
16793;BME280;8513;42.662;23.350;2024-01-07T02:09:30;93189.16;;;8.72;67.69
16793;BME280;8513;42.662;23.350;2024-01-07T02:12:05;93187.97;;;8.74;67.14
16793;BME280;8513;42.662;23.350;2024-01-07T02:14:31;93193.69;;;8.63;66.88
16793;BME280;8513;42.662;23.350;2024-01-07T02:16:57;93183.03;;;8.50;65.98
16793;BME280;8513;42.662;23.350;2024-01-07T02:19:22;93168.69;;;8.31;66.05
16793;BME280;8513;42.662;23.350;2024-01-07T02:21:50;93162.22;;;8.27;66.20
16793;BME280;8513;42.662;23.350;2024-01-07T02:24:17;93148.31;;;8.26;66.16
16793;BME280;8513;42.662;23.350;2024-01-07T02:26:42;93126.41;;;8.34;66.53
16793;BME280;8513;42.662;23.350;2024-01-07T02:29:08;93104.78;;;8.40;66.71
16793;BME280;8513;42.662;23.350;2024-01-07T02:31:33;93105.72;;;8.54;67.75
16793;BME280;8513;42.662;23.350;2024-01-07T02:33:59;93093.78;;;8.66;68.61
16793;BME280;8513;42.662;23.350;2024-01-07T02:36:24;93100.66;;;8.74;69.05
16793;BME280;8513;42.662;23.350;2024-01-07T02:38:49;93102.19;;;8.83;69.02
16793;BME280;8513;42.662;23.350;2024-01-07T02:41:15;93099.84;;;8.95;69.21
16793;BME280;8513;42.662;23.350;2024-01-07T02:43:40;93107.41;;;9.04;69.68
16793;BME280;8513;42.662;23.350;2024-01-07T02:46:07;93105.34;;;9.00;70.29
16793;BME280;8513;42.662;23.350;2024-01-07T02:48:32;93100.09;;;9.00;71.02
16793;BME280;8513;42.662;23.350;2024-01-07T02:50:58;93114.13;;;9.14;70.34
16793;BME280;8513;42.662;23.350;2024-01-07T02:53:23;93116.19;;;9.18;70.47
16793;BME280;8513;42.662;23.350;2024-01-07T02:55:49;93106.56;;;9.25;70.27
16793;BME280;8513;42.662;23.350;2024-01-07T02:58:14;93106.81;;;9.31;69.74
16793;BME280;8513;42.662;23.350;2024-01-07T03:00:40;93121.38;;;9.40;69.89
16793;BME280;8513;42.662;23.350;2024-01-07T03:03:05;93126.31;;;9.49;69.79
16793;BME280;8513;42.662;23.350;2024-01-07T03:05:30;93118.84;;;9.53;70.29
16793;BME280;8513;42.662;23.350;2024-01-07T03:07:58;93122.75;;;9.57;70.17
16793;BME280;8513;42.662;23.350;2024-01-07T03:10:24;93124.00;;;9.68;70.04
16793;BME280;8513;42.662;23.350;2024-01-07T03:12:50;93125.84;;;9.74;70.11
16793;BME280;8513;42.662;23.350;2024-01-07T03:15:15;93129.69;;;9.71;69.98
16793;BME280;8513;42.662;23.350;2024-01-07T03:17:41;93129.28;;;9.75;69.99
16793;BME280;8513;42.662;23.350;2024-01-07T03:20:07;93134.34;;;9.76;70.20
16793;BME280;8513;42.662;23.350;2024-01-07T03:22:33;93147.31;;;9.84;70.47
16793;BME280;8513;42.662;23.350;2024-01-07T03:24:58;93142.69;;;9.86;70.32
16793;BME280;8513;42.662;23.350;2024-01-07T03:27:23;93151.63;;;9.92;70.34
16793;BME280;8513;42.662;23.350;2024-01-07T03:29:49;93134.66;;;9.94;70.29
16793;BME280;8513;42.662;23.350;2024-01-07T03:32:14;93130.22;;;9.95;70.41
16793;BME280;8513;42.662;23.350;2024-01-07T03:34:40;93118.06;;;9.94;70.97
16793;BME280;8513;42.662;23.350;2024-01-07T03:37:05;93125.97;;;9.94;71.36
16793;BME280;8513;42.662;23.350;2024-01-07T03:39:34;93130.22;;;9.95;71.88
16793;BME280;8513;42.662;23.350;2024-01-07T03:41:59;93135.41;;;9.88;72.50
16793;BME280;8513;42.662;23.350;2024-01-07T03:44:25;93130.31;;;9.80;72.12
16793;BME280;8513;42.662;23.350;2024-01-07T03:46:50;93100.84;;;9.78;71.05
16793;BME280;8513;42.662;23.350;2024-01-07T03:49:16;93110.59;;;9.56;71.98
16793;BME280;8513;42.662;23.350;2024-01-07T03:51:43;93115.44;;;9.53;72.17
16793;BME280;8513;42.662;23.350;2024-01-07T03:54:09;93127.88;;;9.44;73.23
16793;BME280;8513;42.662;23.350;2024-01-07T03:56:34;93120.72;;;9.31;72.38
16793;BME280;8513;42.662;23.350;2024-01-07T03:58:59;93118.28;;;9.30;71.89
16793;BME280;8513;42.662;23.350;2024-01-07T04:01:25;93117.44;;;9.22;71.41
16793;BME280;8513;42.662;23.350;2024-01-07T04:03:50;93114.84;;;9.29;71.12
16793;BME280;8513;42.662;23.350;2024-01-07T04:06:16;93110.13;;;9.18;71.08
16793;BME280;8513;42.662;23.350;2024-01-07T04:08:41;93106.25;;;9.14;72.05
16793;BME280;8513;42.662;23.350;2024-01-07T04:11:07;93100.22;;;9.13;72.79
16793;BME280;8513;42.662;23.350;2024-01-07T04:13:32;93095.22;;;9.18;72.94
16793;BME280;8513;42.662;23.350;2024-01-07T04:15:57;93103.03;;;9.12;73.82
16793;BME280;8513;42.662;23.350;2024-01-07T04:18:23;93100.84;;;9.15;73.21
16793;BME280;8513;42.662;23.350;2024-01-07T04:20:48;93083.66;;;9.13;72.77
16793;BME280;8513;42.662;23.350;2024-01-07T04:23:14;93090.50;;;9.07;73.60
16793;BME280;8513;42.662;23.350;2024-01-07T04:25:39;93086.47;;;9.11;73.63
16793;BME280;8513;42.662;23.350;2024-01-07T04:28:06;93097.34;;;9.08;73.46
16793;BME280;8513;42.662;23.350;2024-01-07T04:30:31;93097.44;;;8.93;73.38
16793;BME280;8513;42.662;23.350;2024-01-07T04:32:57;93090.41;;;9.00;73.36
16793;BME280;8513;42.662;23.350;2024-01-07T04:35:22;93077.53;;;8.77;73.68
16793;BME280;8513;42.662;23.350;2024-01-07T04:37:48;93079.03;;;8.87;73.62
16793;BME280;8513;42.662;23.350;2024-01-07T04:40:14;93071.16;;;8.87;73.65
16793;BME280;8513;42.662;23.350;2024-01-07T04:42:39;93069.44;;;9.00;72.76
16793;BME280;8513;42.662;23.350;2024-01-07T04:45:05;93062.78;;;8.98;73.29
16793;BME280;8513;42.662;23.350;2024-01-07T04:47:32;93054.69;;;8.93;73.79
16793;BME280;8513;42.662;23.350;2024-01-07T04:49:59;93060.53;;;8.95;74.25
16793;BME280;8513;42.662;23.350;2024-01-07T04:52:26;93071.03;;;8.95;74.62
16793;BME280;8513;42.662;23.350;2024-01-07T04:54:54;93081.78;;;8.78;74.58
16793;BME280;8513;42.662;23.350;2024-01-07T04:57:20;93082.97;;;8.76;74.82
16793;BME280;8513;42.662;23.350;2024-01-07T04:59:47;93087.91;;;8.86;74.86
16793;BME280;8513;42.662;23.350;2024-01-07T05:02:12;93092.38;;;8.92;75.13
16793;BME280;8513;42.662;23.350;2024-01-07T05:04:38;93085.75;;;8.96;74.90
16793;BME280;8513;42.662;23.350;2024-01-07T05:07:04;93076.78;;;8.83;75.06
16793;BME280;8513;42.662;23.350;2024-01-07T05:09:29;93083.59;;;8.78;75.23
16793;BME280;8513;42.662;23.350;2024-01-07T05:11:55;93062.81;;;8.76;75.42
16793;BME280;8513;42.662;23.350;2024-01-07T05:14:20;93050.94;;;8.80;75.45
16793;BME280;8513;42.662;23.350;2024-01-07T05:16:47;93066.38;;;8.90;75.46
16793;BME280;8513;42.662;23.350;2024-01-07T05:19:13;93065.25;;;8.78;74.98
16793;BME280;8513;42.662;23.350;2024-01-07T05:21:38;93060.63;;;8.80;75.31
16793;BME280;8513;42.662;23.350;2024-01-07T05:24:04;93070.09;;;8.81;75.15
16793;BME280;8513;42.662;23.350;2024-01-07T05:26:30;93075.72;;;8.78;75.55
16793;BME280;8513;42.662;23.350;2024-01-07T05:28:55;93063.44;;;8.78;74.87
16793;BME280;8513;42.662;23.350;2024-01-07T05:31:21;93072.16;;;8.86;75.35
16793;BME280;8513;42.662;23.350;2024-01-07T05:33:47;93076.78;;;8.83;75.66
16793;BME280;8513;42.662;23.350;2024-01-07T05:36:12;93068.28;;;8.81;75.24
16793;BME280;8513;42.662;23.350;2024-01-07T05:38:38;93069.69;;;8.77;76.00
16793;BME280;8513;42.662;23.350;2024-01-07T05:41:04;93063.19;;;8.73;75.86
16793;BME280;8513;42.662;23.350;2024-01-07T05:43:30;93064.44;;;8.77;75.94
16793;BME280;8513;42.662;23.350;2024-01-07T05:45:55;93053.88;;;8.71;75.73
16793;BME280;8513;42.662;23.350;2024-01-07T05:48:22;93047.47;;;8.73;75.56
16793;BME280;8513;42.662;23.350;2024-01-07T05:50:48;93072.69;;;8.74;75.99
16793;BME280;8513;42.662;23.350;2024-01-07T05:53:13;93068.41;;;8.73;75.92
16793;BME280;8513;42.662;23.350;2024-01-07T05:55:38;93084.16;;;8.73;75.91
16793;BME280;8513;42.662;23.350;2024-01-07T05:58:04;93088.66;;;8.79;75.79
16793;BME280;8513;42.662;23.350;2024-01-07T06:00:30;93089.00;;;8.76;75.63
16793;BME280;8513;42.662;23.350;2024-01-07T06:02:55;93093.69;;;8.81;75.63
16793;BME280;8513;42.662;23.350;2024-01-07T06:05:21;93077.78;;;8.82;75.47
16793;BME280;8513;42.662;23.350;2024-01-07T06:07:46;93061.56;;;8.72;75.42
16793;BME280;8513;42.662;23.350;2024-01-07T06:10:12;93048.09;;;8.75;75.67
16793;BME280;8513;42.662;23.350;2024-01-07T06:12:37;93047.72;;;8.57;76.17
16793;BME280;8513;42.662;23.350;2024-01-07T06:15:03;93050.53;;;8.55;76.35
16793;BME280;8513;42.662;23.350;2024-01-07T06:17:29;93061.03;;;8.55;76.56
16793;BME280;8513;42.662;23.350;2024-01-07T06:19:54;93069.59;;;8.71;76.13
16793;BME280;8513;42.662;23.350;2024-01-07T06:22:20;93061.94;;;8.69;75.88
16793;BME280;8513;42.662;23.350;2024-01-07T06:24:45;93061.16;;;8.69;75.86
16793;BME280;8513;42.662;23.350;2024-01-07T06:27:10;93070.41;;;8.71;75.79
16793;BME280;8513;42.662;23.350;2024-01-07T06:29:36;93054.22;;;8.61;75.75
16793;BME280;8513;42.662;23.350;2024-01-07T06:32:01;93065.06;;;8.58;76.00
16793;BME280;8513;42.662;23.350;2024-01-07T06:34:28;93057.50;;;8.70;75.95
16793;BME280;8513;42.662;23.350;2024-01-07T06:36:53;93075.78;;;8.84;75.05
16793;BME280;8513;42.662;23.350;2024-01-07T06:39:19;93076.09;;;8.75;74.96
16793;BME280;8513;42.662;23.350;2024-01-07T06:41:44;93068.16;;;8.68;75.80
16793;BME280;8513;42.662;23.350;2024-01-07T06:44:10;93084.09;;;8.67;76.13
16793;BME280;8513;42.662;23.350;2024-01-07T06:46:35;93103.50;;;8.72;75.66
16793;BME280;8513;42.662;23.350;2024-01-07T06:49:00;93101.00;;;8.64;75.77
16793;BME280;8513;42.662;23.350;2024-01-07T06:51:26;93090.94;;;8.68;75.82
16793;BME280;8513;42.662;23.350;2024-01-07T06:53:52;93099.88;;;8.73;75.87
16793;BME280;8513;42.662;23.350;2024-01-07T06:56:17;93094.63;;;8.73;75.84
16793;BME280;8513;42.662;23.350;2024-01-07T06:58:43;93090.19;;;8.74;75.88
16793;BME280;8513;42.662;23.350;2024-01-07T07:01:09;93092.63;;;8.75;76.19
16793;BME280;8513;42.662;23.350;2024-01-07T07:03:34;93090.00;;;8.75;76.03
16793;BME280;8513;42.662;23.350;2024-01-07T07:05:59;93105.91;;;8.74;76.68
16793;BME280;8513;42.662;23.350;2024-01-07T07:08:25;93105.59;;;8.83;76.23
16793;BME280;8513;42.662;23.350;2024-01-07T07:10:50;93089.63;;;9.00;75.34
16793;BME280;8513;42.662;23.350;2024-01-07T07:13:16;93087.94;;;8.92;75.54
16793;BME280;8513;42.662;23.350;2024-01-07T07:15:42;93078.63;;;8.90;75.54
16793;BME280;8513;42.662;23.350;2024-01-07T07:18:07;93076.88;;;8.97;74.61
16793;BME280;8513;42.662;23.350;2024-01-07T07:20:33;93086.00;;;9.01;74.57
16793;BME280;8513;42.662;23.350;2024-01-07T07:22:58;93086.28;;;9.13;74.42
16793;BME280;8513;42.662;23.350;2024-01-07T07:25:23;93065.34;;;9.19;73.98
16793;BME280;8513;42.662;23.350;2024-01-07T07:27:49;93065.75;;;9.16;73.70
16793;BME280;8513;42.662;23.350;2024-01-07T07:30:15;93060.56;;;9.23;73.58
16793;BME280;8513;42.662;23.350;2024-01-07T07:32:41;93075.94;;;9.33;73.74
16793;BME280;8513;42.662;23.350;2024-01-07T07:35:07;93074.94;;;9.34;73.38
16793;BME280;8513;42.662;23.350;2024-01-07T07:37:32;93098.34;;;9.35;73.10
16793;BME280;8513;42.662;23.350;2024-01-07T07:39:58;93101.34;;;9.60;72.68
16793;BME280;8513;42.662;23.350;2024-01-07T07:42:23;93069.88;;;9.67;71.17
16793;BME280;8513;42.662;23.350;2024-01-07T07:44:49;93075.28;;;9.59;71.81
16793;BME280;8513;42.662;23.350;2024-01-07T07:47:14;93074.25;;;9.53;72.48
16793;BME280;8513;42.662;23.350;2024-01-07T07:49:40;93073.06;;;9.56;72.11
16793;BME280;8513;42.662;23.350;2024-01-07T07:52:07;93066.38;;;9.53;72.15
16793;BME280;8513;42.662;23.350;2024-01-07T07:54:33;93053.72;;;9.63;72.11
16793;BME280;8513;42.662;23.350;2024-01-07T07:56:59;93049.28;;;9.64;71.78
16793;BME280;8513;42.662;23.350;2024-01-07T07:59:24;93054.19;;;9.74;72.25
16793;BME280;8513;42.662;23.350;2024-01-07T08:01:49;93048.97;;;9.80;71.48
16793;BME280;8513;42.662;23.350;2024-01-07T08:04:15;93048.41;;;9.91;70.90
16793;BME280;8513;42.662;23.350;2024-01-07T08:06:41;93065.56;;;9.94;70.92
16793;BME280;8513;42.662;23.350;2024-01-07T08:09:08;93056.88;;;9.87;69.86
16793;BME280;8513;42.662;23.350;2024-01-07T08:11:34;93061.78;;;9.62;70.82
16793;BME280;8513;42.662;23.350;2024-01-07T08:13:59;93061.22;;;9.66;71.12
16793;BME280;8513;42.662;23.350;2024-01-07T08:16:26;93061.06;;;9.75;71.97
16793;BME280;8513;42.662;23.350;2024-01-07T08:18:52;93062.09;;;9.80;71.79
16793;BME280;8513;42.662;23.350;2024-01-07T08:21:17;93057.13;;;9.99;70.25
16793;BME280;8513;42.662;23.350;2024-01-07T08:23:43;93060.38;;;10.01;70.54
16793;BME280;8513;42.662;23.350;2024-01-07T08:26:08;93058.94;;;10.05;70.67
16793;BME280;8513;42.662;23.350;2024-01-07T08:28:33;93065.63;;;10.07;70.61
16793;BME280;8513;42.662;23.350;2024-01-07T08:30:59;93062.78;;;10.02;71.22
16793;BME280;8513;42.662;23.350;2024-01-07T08:33:24;93056.16;;;10.13;71.56
16793;BME280;8513;42.662;23.350;2024-01-07T08:35:50;93047.25;;;10.07;71.21
16793;BME280;8513;42.662;23.350;2024-01-07T08:38:15;93057.28;;;10.32;71.01
16793;BME280;8513;42.662;23.350;2024-01-07T08:40:41;93063.75;;;10.36;70.87
16793;BME280;8513;42.662;23.350;2024-01-07T08:43:06;93066.75;;;10.33;70.54
16793;BME280;8513;42.662;23.350;2024-01-07T08:45:32;93064.16;;;10.40;70.32
16793;BME280;8513;42.662;23.350;2024-01-07T08:47:57;93068.19;;;10.35;70.48
16793;BME280;8513;42.662;23.350;2024-01-07T08:50:22;93054.81;;;10.24;70.97
16793;BME280;8513;42.662;23.350;2024-01-07T08:52:48;93052.81;;;10.32;71.65
16793;BME280;8513;42.662;23.350;2024-01-07T08:55:13;93059.31;;;10.43;71.48
16793;BME280;8513;42.662;23.350;2024-01-07T08:57:39;93051.69;;;10.62;70.19
16793;BME280;8513;42.662;23.350;2024-01-07T09:00:05;93047.22;;;10.62;69.67
16793;BME280;8513;42.662;23.350;2024-01-07T09:02:33;93048.03;;;10.63;70.54
16793;BME280;8513;42.662;23.350;2024-01-07T09:04:58;93053.72;;;10.73;71.18
16793;BME280;8513;42.662;23.350;2024-01-07T09:07:24;93056.31;;;10.79;70.79
16793;BME280;8513;42.662;23.350;2024-01-07T09:09:49;93044.59;;;10.82;70.05
16793;BME280;8513;42.662;23.350;2024-01-07T09:12:15;93038.75;;;10.93;69.95
16793;BME280;8513;42.662;23.350;2024-01-07T09:14:40;93046.44;;;11.21;69.20
16793;BME280;8513;42.662;23.350;2024-01-07T09:17:06;93042.00;;;11.15;69.83
16793;BME280;8513;42.662;23.350;2024-01-07T09:19:31;93042.53;;;11.44;69.42
16793;BME280;8513;42.662;23.350;2024-01-07T09:21:57;93064.16;;;11.73;68.82
16793;BME280;8513;42.662;23.350;2024-01-07T09:24:22;93064.16;;;11.93;67.44
16793;BME280;8513;42.662;23.350;2024-01-07T09:26:47;93068.53;;;12.05;66.45
16793;BME280;8513;42.662;23.350;2024-01-07T09:29:13;93048.72;;;11.96;65.31
16793;BME280;8513;42.662;23.350;2024-01-07T09:31:39;93054.75;;;12.10;65.16
16793;BME280;8513;42.662;23.350;2024-01-07T09:34:05;93051.94;;;12.05;64.74
16793;BME280;8513;42.662;23.350;2024-01-07T09:36:32;93040.34;;;12.12;64.25
16793;BME280;8513;42.662;23.350;2024-01-07T09:38:58;93035.25;;;12.18;64.23
16793;BME280;8513;42.662;23.350;2024-01-07T09:41:23;93027.09;;;12.32;63.78
16793;BME280;8513;42.662;23.350;2024-01-07T09:43:50;93032.44;;;12.19;63.72
16793;BME280;8513;42.662;23.350;2024-01-07T09:46:16;93025.53;;;12.18;63.76
16793;BME280;8513;42.662;23.350;2024-01-07T09:48:42;93038.09;;;12.16;63.98
16793;BME280;8513;42.662;23.350;2024-01-07T09:51:09;93044.34;;;12.28;64.34
16793;BME280;8513;42.662;23.350;2024-01-07T09:53:38;93050.56;;;12.41;63.34
16793;BME280;8513;42.662;23.350;2024-01-07T09:56:22;93054.44;;;12.38;61.52
16793;BME280;8513;42.662;23.350;2024-01-07T09:58:48;93045.66;;;12.44;60.30
16793;BME280;8513;42.662;23.350;2024-01-07T10:01:18;93040.19;;;12.46;60.69
16793;BME280;8513;42.662;23.350;2024-01-07T10:03:44;93034.94;;;12.39;60.80
16793;BME280;8513;42.662;23.350;2024-01-07T10:06:12;93030.94;;;12.68;60.71
16793;BME280;8513;42.662;23.350;2024-01-07T10:08:38;93015.56;;;12.58;60.09
16793;BME280;8513;42.662;23.350;2024-01-07T10:11:04;93019.75;;;12.73;59.01
16793;BME280;8513;42.662;23.350;2024-01-07T10:13:31;93037.25;;;12.61;59.40
16793;BME280;8513;42.662;23.350;2024-01-07T10:15:56;93028.19;;;12.56;59.48
16793;BME280;8513;42.662;23.350;2024-01-07T10:18:22;93014.66;;;12.46;59.55
16793;BME280;8513;42.662;23.350;2024-01-07T10:20:48;93003.84;;;12.54;59.77
16793;BME280;8513;42.662;23.350;2024-01-07T10:23:19;93009.22;;;12.66;59.52
16793;BME280;8513;42.662;23.350;2024-01-07T10:25:44;93002.72;;;12.69;58.82
16793;BME280;8513;42.662;23.350;2024-01-07T10:28:10;92994.09;;;12.55;58.46
16793;BME280;8513;42.662;23.350;2024-01-07T10:30:38;92994.88;;;12.62;58.52
16793;BME280;8513;42.662;23.350;2024-01-07T10:33:04;92993.47;;;12.85;57.92
16793;BME280;8513;42.662;23.350;2024-01-07T10:35:36;92978.06;;;13.07;57.96
16793;BME280;8513;42.662;23.350;2024-01-07T10:38:03;92970.19;;;13.25;56.66
16793;BME280;8513;42.662;23.350;2024-01-07T10:40:30;92996.81;;;13.23;56.42
16793;BME280;8513;42.662;23.350;2024-01-07T10:42:56;92979.59;;;13.21;57.02
16793;BME280;8513;42.662;23.350;2024-01-07T10:45:23;92976.50;;;13.24;56.53
16793;BME280;8513;42.662;23.350;2024-01-07T10:47:49;92971.63;;;13.28;57.10
16793;BME280;8513;42.662;23.350;2024-01-07T10:50:18;92976.28;;;13.25;57.07
16793;BME280;8513;42.662;23.350;2024-01-07T10:52:49;92965.28;;;13.10;57.06
16793;BME280;8513;42.662;23.350;2024-01-07T10:55:18;92995.25;;;13.16;56.72
16793;BME280;8513;42.662;23.350;2024-01-07T10:57:47;92989.03;;;13.10;56.36
16793;BME280;8513;42.662;23.350;2024-01-07T11:00:18;92984.19;;;13.07;56.80
16793;BME280;8513;42.662;23.350;2024-01-07T11:05:31;92979.91;;;13.06;56.69
16793;BME280;8513;42.662;23.350;2024-01-07T11:08:15;92993.69;;;13.08;56.75
16793;BME280;8513;42.662;23.350;2024-01-07T11:10:48;92975.22;;;13.08;56.27
16793;BME280;8513;42.662;23.350;2024-01-07T11:13:37;92973.13;;;12.92;56.82
16793;BME280;8513;42.662;23.350;2024-01-07T11:16:04;92977.53;;;12.98;56.28
16793;BME280;8513;42.662;23.350;2024-01-07T11:18:31;92980.13;;;13.05;55.71
16793;BME280;8513;42.662;23.350;2024-01-07T11:21:02;92988.78;;;13.12;55.14
16793;BME280;8513;42.662;23.350;2024-01-07T11:23:32;92973.06;;;12.98;54.34
16793;BME280;8513;42.662;23.350;2024-01-07T11:26:06;92974.03;;;13.04;54.69
16793;BME280;8513;42.662;23.350;2024-01-07T11:28:49;92977.06;;;13.08;54.56
16793;BME280;8513;42.662;23.350;2024-01-07T11:31:16;92965.03;;;13.12;54.27
16793;BME280;8513;42.662;23.350;2024-01-07T11:33:46;92967.00;;;12.98;55.07
16793;BME280;8513;42.662;23.350;2024-01-07T11:36:13;92978.78;;;12.95;54.56
16793;BME280;8513;42.662;23.350;2024-01-07T11:38:48;92975.03;;;13.10;54.39
16793;BME280;8513;42.662;23.350;2024-01-07T11:41:15;92973.28;;;12.72;54.59
16793;BME280;8513;42.662;23.350;2024-01-07T11:43:57;92977.66;;;12.60;55.26
16793;BME280;8513;42.662;23.350;2024-01-07T11:46:26;92977.38;;;12.68;55.08
16793;BME280;8513;42.662;23.350;2024-01-07T11:48:54;92988.47;;;12.76;55.64
16793;BME280;8513;42.662;23.350;2024-01-07T11:51:25;92988.31;;;12.71;55.63
16793;BME280;8513;42.662;23.350;2024-01-07T11:53:51;92986.47;;;12.72;55.35
16793;BME280;8513;42.662;23.350;2024-01-07T11:56:17;92987.88;;;12.74;55.05
16793;BME280;8513;42.662;23.350;2024-01-07T11:58:43;92984.22;;;12.75;54.83
16793;BME280;8513;42.662;23.350;2024-01-07T12:01:08;92978.03;;;12.88;54.44
16793;BME280;8513;42.662;23.350;2024-01-07T12:03:34;92977.19;;;12.94;54.49
16793;BME280;8513;42.662;23.350;2024-01-07T12:05:59;92970.72;;;12.90;54.91
16793;BME280;8513;42.662;23.350;2024-01-07T12:08:25;92968.03;;;12.97;54.93
16793;BME280;8513;42.662;23.350;2024-01-07T12:10:50;92972.44;;;13.03;55.06
16793;BME280;8513;42.662;23.350;2024-01-07T12:13:17;92975.44;;;13.07;55.04
16793;BME280;8513;42.662;23.350;2024-01-07T12:15:42;92968.66;;;12.92;54.83
16793;BME280;8513;42.662;23.350;2024-01-07T12:18:09;92973.50;;;12.95;54.97
16793;BME280;8513;42.662;23.350;2024-01-07T12:20:34;92976.50;;;12.80;55.68
16793;BME280;8513;42.662;23.350;2024-01-07T12:23:09;92977.38;;;12.68;55.68
16793;BME280;8513;42.662;23.350;2024-01-07T12:25:36;92986.91;;;12.69;55.99
16793;BME280;8513;42.662;23.350;2024-01-07T12:28:02;92984.59;;;12.54;56.41
16793;BME280;8513;42.662;23.350;2024-01-07T12:30:31;92993.25;;;12.61;55.99
16793;BME280;8513;42.662;23.350;2024-01-07T12:32:57;92980.31;;;12.53;56.23
16793;BME280;8513;42.662;23.350;2024-01-07T12:35:25;92980.75;;;12.50;56.02
16793;BME280;8513;42.662;23.350;2024-01-07T12:37:50;92988.06;;;12.48;56.49
16793;BME280;8513;42.662;23.350;2024-01-07T12:40:16;92986.78;;;12.57;56.50
16793;BME280;8513;42.662;23.350;2024-01-07T12:42:41;92990.88;;;12.53;56.98
16793;BME280;8513;42.662;23.350;2024-01-07T12:45:13;92987.84;;;12.49;56.75
16793;BME280;8513;42.662;23.350;2024-01-07T12:47:40;92980.72;;;12.56;56.87
16793;BME280;8513;42.662;23.350;2024-01-07T12:50:08;92980.03;;;12.68;57.13
16793;BME280;8513;42.662;23.350;2024-01-07T12:52:39;92978.38;;;12.67;57.21
16793;BME280;8513;42.662;23.350;2024-01-07T12:55:06;92988.94;;;12.67;56.89
16793;BME280;8513;42.662;23.350;2024-01-07T12:57:33;92981.44;;;12.70;56.58
16793;BME280;8513;42.662;23.350;2024-01-07T12:59:59;92979.78;;;12.69;56.54
16793;BME280;8513;42.662;23.350;2024-01-07T13:02:24;92989.09;;;12.72;56.79
16793;BME280;8513;42.662;23.350;2024-01-07T13:04:51;92975.56;;;12.68;56.94